Aérodrome :
LOGIN :

S'inscrire | Disclaimer

   EN    FR    IT 

 










Légende :    VFR   VFR Marginal   IFR   IFR Intensif   IFR Très Intensif
Visi : 
Plafond : 
>= 8 km
>= 3000ft
5 à 8 km
1000 à 3000 ft
1500m à 5 km
500 à 1000 ft
800 à 1500m
200 à 500 ft
< 800m
< 200 ft
Symboles :   Orages  Brouillard  Fortes neiges  Fortes précipitations  Vent > 20 kt
SIGMETs :   Divers  Orages  Givrage  Turbulence  Onde Orograph.  Cendres Volcan.







- Altitude de l'aérodrome : 587 ft
- Code IATA : XCR
- Voir les cartes d'approche


LFOK - Chalons Vatry

DERNIER METAR :
  • 181530Z AUTO 27015G31KT 9999 BKN030/// BKN037/// BKN043/// ///TCU 09/05 Q1006 TEMPO 4000 SHRA

METARs EXPIRÉS :
  • 181500Z AUTO 27011KT 9999 FEW032 BKN066 BKN078 09/06 Q1005 TEMPO 27020G30KT 4000 SHRA BKN020TCU
  • 181430Z AUTO 28014KT 9999 SCT049 BKN062 OVC076 09/06 Q1005 BECMG 27015G25KT
  • 181400Z AUTO 27013KT 9999 SCT041 BKN050 OVC070 10/07 Q1005 BECMG 27015G25KT
  • 181330Z AUTO 28018KT 9999 FEW033/// BKN040/// OVC052/// ///CB 09/07 Q1005 BECMG 27015G25KT BKN030
  • 181300Z AUTO 29021G32KT 9999 FEW013/// BKN020/// OVC029/// ///CB 10/07 Q1005 BECMG BKN030

TAF AMD TAF LFOK
Valide du 18 à 14h jusqu'au 19 à 12h UTC


181422Z 1814/1912 28015KT 9999 BKN030
TEMPO 1815/1824 27020G30KT 4000 SHRA BKN020TCU
TEMPO 1909/1912 4000 SHRASN BKN010 BKN030CB
Pas de NOTAMs connus pour ce terrain.



MET'MAP, la Météo Aéronautique d'un coup d'oeil ! - Copyright ORBIFLY Décembre 2007 - Disclaimer

ORBIFLY MET'MAP TEAM :

Programmation & Développement : Alexandra Zaïnal
Conception & Développement : Baudouin d'Aumeries
Co-Programmation & Développement : Marc-Olivier Méhu
Soutien technique & logistique : Manuel Goepfert

Contact : metmap@orbifly.com




SOURCES & CREDITS :

   NOAA